createdAt,value
2024-05-09T00:00:18.517Z,186.76
2024-05-09T00:01:15.047Z,186.79
2024-05-09T00:02:14.089Z,186.82
2024-05-09T00:03:14.022Z,186.67
2024-05-09T00:04:13.965Z,186.77
2024-05-09T00:05:14.069Z,187.50
2024-05-09T00:06:14.027Z,185.81
2024-05-09T00:07:13.871Z,185.97
2024-05-09T00:08:13.935Z,185.75
2024-05-09T00:09:13.850Z,185.90
2024-05-09T00:10:22.398Z,184.48
2024-05-09T00:11:14.898Z,184.53
2024-05-09T00:12:13.923Z,184.79
2024-05-09T00:13:13.750Z,184.85
2024-05-09T00:14:13.788Z,185.18
2024-05-09T00:15:13.707Z,185.16
2024-05-09T00:16:13.678Z,185.22
2024-05-09T00:17:13.758Z,184.52
2024-05-09T00:18:13.786Z,184.57
2024-05-09T00:19:13.760Z,184.74
2024-05-09T00:20:20.188Z,184.49
2024-05-09T00:21:14.630Z,184.55
2024-05-09T00:22:13.588Z,184.75
2024-05-09T00:23:14.061Z,185.22
2024-05-09T00:24:13.582Z,185.48
2024-05-09T00:25:13.537Z,186.17
2024-05-09T00:26:13.597Z,185.61
2024-05-09T00:27:13.586Z,185.92
2024-05-09T00:28:13.523Z,186.27
2024-05-09T00:29:13.528Z,186.11
2024-05-09T00:30:21.002Z,185.66
2024-05-09T00:31:14.448Z,185.70
2024-05-09T00:32:13.496Z,185.84
2024-05-09T00:33:13.667Z,185.93
2024-05-09T00:34:13.471Z,186.35
2024-05-09T00:35:13.387Z,186.61
2024-05-09T00:36:13.370Z,186.46
2024-05-09T00:37:13.337Z,186.49
2024-05-09T00:38:13.353Z,186.55
2024-05-09T00:39:13.331Z,186.68
2024-05-09T00:40:18.756Z,186.77
2024-05-09T00:41:16.315Z,186.55
2024-05-09T00:42:13.264Z,186.55
2024-05-09T00:43:14.389Z,186.79
2024-05-09T00:44:13.380Z,187.41
2024-05-09T00:45:13.206Z,187.51
2024-05-09T00:46:13.224Z,187.45
2024-05-09T00:47:13.302Z,187.51
2024-05-09T00:48:15.356Z,187.26
2024-05-09T00:49:13.196Z,187.30
2024-05-09T00:50:19.228Z,187.39
2024-05-09T00:51:13.190Z,187.31
2024-05-09T00:52:13.093Z,187.28
2024-05-09T00:53:13.179Z,186.84
2024-05-09T00:54:13.045Z,185.91
2024-05-09T00:55:13.025Z,186.20
2024-05-09T00:56:13.062Z,184.85
2024-05-09T00:57:12.974Z,184.40
2024-05-09T00:58:12.958Z,185.09
2024-05-09T00:59:13.024Z,184.42
2024-05-09T01:00:22.567Z,184.28
2024-05-09T01:01:14.000Z,184.31
2024-05-09T01:02:12.976Z,184.43
2024-05-09T01:03:14.246Z,184.59
2024-05-09T01:04:12.915Z,184.50
2024-05-09T01:05:12.947Z,184.19
2024-05-09T01:06:12.822Z,184.93
2024-05-09T01:07:12.804Z,184.72
2024-05-09T01:08:12.903Z,184.55
2024-05-09T01:09:12.779Z,184.12
2024-05-09T01:10:17.432Z,185.14
2024-05-09T01:11:13.804Z,185.18
2024-05-09T01:12:12.841Z,185.16
2024-05-09T01:13:12.788Z,185.06
2024-05-09T01:14:12.693Z,184.84
2024-05-09T01:15:12.686Z,184.91
2024-05-09T01:16:12.636Z,184.28
2024-05-09T01:17:13.163Z,185.04
2024-05-09T01:18:13.704Z,185.01
2024-05-09T01:19:12.722Z,185.53
2024-05-09T01:20:19.826Z,184.77
2024-05-09T01:21:13.846Z,184.82
2024-05-09T01:22:12.518Z,184.93
2024-05-09T01:23:13.359Z,185.11
2024-05-09T01:24:12.491Z,185.66
2024-05-09T01:25:12.466Z,186.07
2024-05-09T01:26:12.515Z,185.92
2024-05-09T01:27:12.489Z,185.48
2024-05-09T01:28:12.524Z,185.77
2024-05-09T01:29:12.603Z,185.48
2024-05-09T01:31:12.457Z,185.87
2024-05-09T01:32:12.587Z,185.27
2024-05-09T01:33:13.207Z,185.21
2024-05-09T01:34:12.463Z,184.85
2024-05-09T01:35:12.479Z,185.50
2024-05-09T01:36:12.411Z,184.93
2024-05-09T01:37:12.405Z,185.32
2024-05-09T01:38:12.428Z,184.44
2024-05-09T01:39:12.374Z,184.71
2024-05-09T01:40:18.394Z,185.06
2024-05-09T01:41:13.427Z,185.09
2024-05-09T01:42:12.357Z,185.22
2024-05-09T01:43:12.481Z,185.52
2024-05-09T01:44:12.363Z,185.66
2024-05-09T01:45:12.307Z,186.46
2024-05-09T01:46:12.278Z,185.13
2024-05-09T01:47:12.365Z,185.23
2024-05-09T01:48:12.451Z,185.07
2024-05-09T01:49:12.490Z,184.86
2024-05-09T01:50:16.333Z,184.66
2024-05-09T01:51:12.224Z,184.75
2024-05-09T01:52:12.165Z,184.86
2024-05-09T01:53:12.662Z,185.09
2024-05-09T01:54:12.121Z,185.41
2024-05-09T01:55:12.076Z,185.64
2024-05-09T01:56:12.182Z,185.46
2024-05-09T01:57:12.050Z,185.73
2024-05-09T01:58:11.994Z,185.57
2024-05-09T01:59:11.984Z,185.21
2024-05-09T02:00:15.638Z,185.02
2024-05-09T02:01:12.021Z,185.05
2024-05-09T02:02:12.081Z,185.13
2024-05-09T02:03:14.704Z,185.11
2024-05-09T02:04:13.063Z,185.12
2024-05-09T02:05:12.080Z,185.45
2024-05-09T02:06:11.918Z,185.67
2024-05-09T02:07:11.830Z,186.36
2024-05-09T02:08:11.807Z,185.97
2024-05-09T02:09:11.746Z,185.55
2024-05-09T02:10:20.036Z,185.34
2024-05-09T02:11:12.875Z,185.39
2024-05-09T02:12:11.798Z,185.46
2024-05-09T02:13:11.645Z,185.71
2024-05-09T02:14:11.671Z,186.04
2024-05-09T02:15:11.607Z,186.14
2024-05-09T02:16:11.593Z,185.14
2024-05-09T02:17:11.628Z,185.18
2024-05-09T02:18:12.009Z,184.75
2024-05-09T02:19:11.721Z,185.18
2024-05-09T02:20:18.789Z,184.57
2024-05-09T02:21:12.538Z,184.61
2024-05-09T02:22:11.474Z,184.80
2024-05-09T02:23:11.549Z,184.94
2024-05-09T02:24:11.413Z,185.18
2024-05-09T02:25:11.384Z,185.11
2024-05-09T02:26:11.473Z,185.07
2024-05-09T02:27:11.332Z,185.70
2024-05-09T02:28:11.326Z,185.48
2024-05-09T02:29:11.474Z,185.47
2024-05-09T02:30:18.795Z,184.80
2024-05-09T02:31:11.348Z,184.83
2024-05-09T02:32:11.716Z,184.95
2024-05-09T02:33:13.358Z,185.13
2024-05-09T02:34:11.467Z,184.88
2024-05-09T02:35:11.392Z,185.09
2024-05-09T02:36:11.151Z,185.68
2024-05-09T02:37:11.146Z,185.46
2024-05-09T02:38:11.287Z,184.91
2024-05-09T02:39:11.118Z,185.09
2024-05-09T02:40:14.745Z,185.58
2024-05-09T02:41:12.123Z,184.89
2024-05-09T02:42:11.053Z,185.11
2024-05-09T02:43:11.762Z,185.32
2024-05-09T02:44:11.030Z,185.35
2024-05-09T02:45:10.965Z,185.40
2024-05-09T02:46:10.966Z,185.47
2024-05-09T02:47:10.986Z,184.81
2024-05-09T02:48:11.670Z,185.27
2024-05-09T02:49:11.044Z,183.97
2024-05-09T02:50:13.440Z,184.21
2024-05-09T02:51:11.929Z,184.27
2024-05-09T02:52:10.833Z,184.44
2024-05-09T02:53:10.873Z,184.42
2024-05-09T02:54:10.790Z,184.77
2024-05-09T02:55:10.768Z,184.88
2024-05-09T02:56:10.790Z,184.20
2024-05-09T02:57:10.742Z,184.24
2024-05-09T02:58:10.878Z,183.57
2024-05-09T02:59:10.778Z,183.91
2024-05-09T03:00:18.464Z,183.50
2024-05-09T03:01:11.812Z,183.56
2024-05-09T03:02:10.766Z,183.79
2024-05-09T03:03:12.973Z,183.59
2024-05-09T03:04:10.639Z,183.56
2024-05-09T03:05:10.595Z,183.73
2024-05-09T03:06:10.519Z,183.91
2024-05-09T03:07:10.516Z,184.09
2024-05-09T03:08:10.675Z,183.58
2024-05-09T03:09:10.465Z,183.97
2024-05-09T03:10:18.298Z,184.40
2024-05-09T03:11:11.568Z,183.60
2024-05-09T03:12:10.556Z,183.77
2024-05-09T03:13:10.391Z,184.20
2024-05-09T03:14:10.415Z,184.92
2024-05-09T03:15:10.329Z,184.96
2024-05-09T03:16:10.329Z,184.72
2024-05-09T03:17:10.414Z,184.66
2024-05-09T03:18:10.520Z,184.12
2024-05-09T03:19:10.380Z,184.05
2024-05-09T03:20:17.518Z,184.84
2024-05-09T03:21:11.356Z,184.86
2024-05-09T03:22:10.220Z,185.00
2024-05-09T03:23:10.543Z,184.85
2024-05-09T03:24:10.181Z,184.88
2024-05-09T03:25:10.179Z,183.97
2024-05-09T03:26:10.191Z,183.61
2024-05-09T03:27:10.133Z,183.49
2024-05-09T03:28:10.101Z,183.43
2024-05-09T03:29:10.114Z,184.02
2024-05-09T03:30:10.156Z,182.94
2024-05-09T03:31:10.046Z,182.00
2024-05-09T03:32:10.109Z,182.76
2024-05-09T03:33:10.512Z,183.01
2024-05-09T03:34:10.020Z,182.80
2024-05-09T03:35:10.001Z,183.21
2024-05-09T03:36:11.269Z,182.68
2024-05-09T03:37:09.964Z,182.71
2024-05-09T03:38:10.135Z,182.89
2024-05-09T03:39:09.894Z,183.02
2024-05-09T03:40:17.526Z,182.68
2024-05-09T03:41:10.892Z,182.76
2024-05-09T03:42:09.848Z,182.98
2024-05-09T03:43:09.823Z,183.00
2024-05-09T03:44:09.898Z,183.17
2024-05-09T03:45:09.804Z,182.96
2024-05-09T03:46:09.769Z,182.43
2024-05-09T03:47:09.781Z,181.80
2024-05-09T03:48:09.989Z,183.01
2024-05-09T03:49:09.785Z,182.63
2024-05-09T03:50:18.012Z,182.84
2024-05-09T03:51:10.768Z,182.89
2024-05-09T03:52:09.668Z,182.99
2024-05-09T03:53:09.734Z,182.95
2024-05-09T03:54:09.630Z,183.16
2024-05-09T03:55:09.599Z,182.99
2024-05-09T03:56:09.626Z,183.65
2024-05-09T03:57:09.574Z,182.99
2024-05-09T03:58:09.573Z,182.55
2024-05-09T03:59:09.617Z,182.64
2024-05-09T04:00:17.796Z,182.11
2024-05-09T04:01:10.545Z,182.15
2024-05-09T04:02:09.549Z,182.34
2024-05-09T04:03:11.662Z,182.48
2024-05-09T04:04:09.503Z,182.80
2024-05-09T04:05:09.439Z,184.29
2024-05-09T04:06:09.428Z,182.87
2024-05-09T04:07:09.412Z,182.48
2024-05-09T04:08:09.782Z,182.24
2024-05-09T04:09:09.359Z,182.40
2024-05-09T04:10:16.787Z,182.37
2024-05-09T04:11:10.441Z,182.45
2024-05-09T04:12:09.433Z,182.67
2024-05-09T04:13:09.341Z,182.46
2024-05-09T04:14:09.383Z,182.65
2024-05-09T04:15:12.879Z,182.90
2024-05-09T04:16:09.307Z,182.43
2024-05-09T04:17:09.350Z,182.62
2024-05-09T04:18:09.521Z,182.94
2024-05-09T04:19:09.377Z,183.34
2024-05-09T04:20:12.460Z,182.60
2024-05-09T04:21:10.413Z,182.46
2024-05-09T04:22:09.234Z,182.68
2024-05-09T04:23:09.670Z,182.61
2024-05-09T04:24:09.188Z,182.74
2024-05-09T04:25:16.405Z,50.00
2024-05-09T04:26:16.411Z,50.00
2024-05-09T04:27:16.405Z,50.00
2024-05-09T04:28:16.399Z,50.00
2024-05-09T04:29:16.498Z,50.00
2024-05-09T04:30:25.482Z,50.78
2024-05-09T04:31:28.519Z,50.00
2024-05-09T04:32:28.757Z,50.00
2024-05-09T04:33:28.712Z,50.00
2024-05-09T04:34:28.633Z,50.00
2024-05-09T04:35:28.630Z,50.00
2024-05-09T04:36:28.571Z,50.28
2024-05-09T04:37:29.112Z,50.89
2024-05-09T04:38:28.651Z,50.43
2024-05-09T04:39:28.641Z,50.00
2024-05-09T04:40:33.757Z,50.51
2024-05-09T04:41:29.679Z,50.56
2024-05-09T04:42:28.684Z,50.54
2024-05-09T04:43:28.696Z,50.61
2024-05-09T04:44:28.785Z,50.12
2024-05-09T04:45:28.713Z,49.72
2024-05-09T04:46:28.772Z,50.43
2024-05-09T04:47:28.808Z,50.64
2024-05-09T04:48:28.948Z,50.78
2024-05-09T04:49:28.891Z,51.51
2024-05-09T04:50:35.962Z,51.05
2024-05-09T04:51:29.857Z,51.09
2024-05-09T04:52:28.878Z,51.19
2024-05-09T04:53:28.926Z,49.98
2024-05-09T04:54:35.834Z,51.14
2024-05-09T04:55:29.922Z,51.05
2024-05-09T04:56:28.998Z,51.13
2024-05-09T04:57:28.962Z,51.12
2024-05-09T04:58:28.951Z,49.49
2024-05-09T04:59:28.998Z,49.32
2024-05-09T05:00:35.592Z,50.15
2024-05-09T05:01:30.165Z,50.20
2024-05-09T05:02:29.086Z,50.46
2024-05-09T05:03:29.240Z,50.73
2024-05-09T05:04:29.038Z,50.24
2024-05-09T05:05:29.076Z,50.43
2024-05-09T05:06:29.042Z,50.60
2024-05-09T05:07:29.057Z,50.84
2024-05-09T05:08:29.078Z,49.69
2024-05-09T05:09:29.067Z,50.50
2024-05-09T05:10:35.199Z,50.00
2024-05-09T05:11:30.168Z,50.06
2024-05-09T05:12:29.167Z,50.22
2024-05-09T05:13:29.129Z,50.19
2024-05-09T05:14:29.224Z,50.59
2024-05-09T05:15:29.163Z,50.13
2024-05-09T05:16:29.168Z,50.54
2024-05-09T05:17:29.529Z,50.59
2024-05-09T05:18:29.422Z,50.61
2024-05-09T05:19:29.382Z,51.15
2024-05-09T05:20:33.557Z,50.68
2024-05-09T05:21:30.344Z,50.62
2024-05-09T05:22:29.269Z,51.05
2024-05-09T05:23:29.316Z,51.09
2024-05-09T05:24:29.318Z,50.24
2024-05-09T05:25:29.306Z,50.67
2024-05-09T05:26:29.431Z,51.45
2024-05-09T05:27:29.325Z,51.38
2024-05-09T05:28:29.366Z,52.52
2024-05-09T05:29:29.443Z,51.23
2024-05-09T05:30:34.437Z,51.00
2024-05-09T05:31:30.548Z,51.04
2024-05-09T05:32:29.593Z,51.25
2024-05-09T05:33:29.656Z,50.99
2024-05-09T05:34:29.507Z,51.32
2024-05-09T05:35:29.598Z,50.19
2024-05-09T05:36:29.550Z,50.34
2024-05-09T05:37:29.555Z,50.84
2024-05-09T05:38:29.574Z,50.64
2024-05-09T05:39:29.654Z,50.02
2024-05-09T05:40:36.210Z,50.39
2024-05-09T05:41:30.849Z,50.47
2024-05-09T05:42:29.747Z,50.64
2024-05-09T05:43:29.778Z,50.86
2024-05-09T05:44:29.834Z,51.03
2024-05-09T05:45:29.796Z,51.31
2024-05-09T05:46:29.786Z,51.94
2024-05-09T05:47:29.991Z,51.00
2024-05-09T05:48:29.911Z,50.93
2024-05-09T05:49:29.926Z,50.45
2024-05-09T05:50:35.703Z,50.62
2024-05-09T05:51:30.891Z,50.67
2024-05-09T05:52:29.916Z,50.70
2024-05-09T05:53:30.020Z,49.69
2024-05-09T05:54:29.924Z,49.22
2024-05-09T05:55:29.959Z,48.56
2024-05-09T05:56:30.012Z,51.53
2024-05-09T05:57:29.981Z,50.00
2024-05-09T05:58:29.971Z,50.47
2024-05-09T05:59:30.111Z,50.26
2024-05-09T06:00:37.597Z,50.80
2024-05-09T06:01:31.246Z,50.85
2024-05-09T06:02:30.215Z,50.57
2024-05-09T06:03:30.248Z,51.04
2024-05-09T06:04:30.224Z,50.88
2024-05-09T06:05:30.197Z,49.86
2024-05-09T06:06:30.152Z,50.58
2024-05-09T06:07:30.159Z,51.15
2024-05-09T06:08:30.646Z,50.10
2024-05-09T06:09:30.217Z,51.24
2024-05-09T06:10:37.684Z,50.58
2024-05-09T06:11:31.438Z,50.65
2024-05-09T06:12:30.372Z,50.82
2024-05-09T06:13:30.325Z,51.41
2024-05-09T06:14:30.438Z,51.56
2024-05-09T06:15:30.364Z,52.77
2024-05-09T06:16:30.370Z,52.62
2024-05-09T06:17:30.507Z,52.48
2024-05-09T06:18:30.676Z,50.43
2024-05-09T06:19:30.732Z,52.13
2024-05-09T06:20:35.955Z,52.64
2024-05-09T06:21:31.488Z,52.66
2024-05-09T06:22:30.480Z,52.66
2024-05-09T06:23:30.519Z,53.18
2024-05-09T06:24:30.504Z,52.74
2024-05-09T06:25:30.497Z,51.69
2024-05-09T06:26:30.585Z,51.37
2024-05-09T06:27:30.508Z,50.40
2024-05-09T06:28:30.525Z,51.35
2024-05-09T06:29:30.631Z,50.74
2024-05-09T06:30:38.148Z,50.02
2024-05-09T06:31:31.605Z,50.09
2024-05-09T06:32:30.727Z,50.19
2024-05-09T06:33:30.858Z,50.44
2024-05-09T06:34:30.727Z,49.84
2024-05-09T06:35:30.927Z,48.88
2024-05-09T06:36:30.672Z,51.12
2024-05-09T06:37:30.698Z,51.04
2024-05-09T06:38:30.725Z,51.57
2024-05-09T06:39:30.696Z,51.19
2024-05-09T06:40:36.957Z,53.57
2024-05-09T06:41:31.743Z,53.60
2024-05-09T06:42:30.743Z,53.46
2024-05-09T06:43:30.761Z,53.79
2024-05-09T06:44:30.811Z,53.83
2024-05-09T06:45:30.777Z,53.79
2024-05-09T06:46:30.780Z,54.61
2024-05-09T06:47:31.002Z,52.92
2024-05-09T06:48:30.987Z,52.70
2024-05-09T06:49:30.961Z,52.88
2024-05-09T06:50:35.836Z,53.29
2024-05-09T06:51:31.850Z,53.41
2024-05-09T06:52:30.854Z,52.87
2024-05-09T06:53:30.891Z,53.47
2024-05-09T06:54:30.852Z,51.99
2024-05-09T06:55:30.926Z,52.87
2024-05-09T06:56:30.921Z,52.90
2024-05-09T06:57:31.156Z,54.36
2024-05-09T06:58:31.184Z,51.09
2024-05-09T06:59:30.955Z,52.85
2024-05-09T07:00:38.365Z,52.69
2024-05-09T07:01:31.947Z,52.76
2024-05-09T07:02:31.201Z,52.80
2024-05-09T07:03:31.053Z,49.35
2024-05-09T07:04:31.068Z,48.21
2024-05-09T07:05:30.983Z,51.98
2024-05-09T07:06:30.951Z,50.06
2024-05-09T07:07:31.021Z,51.07
2024-05-09T07:08:31.074Z,52.32
2024-05-09T07:09:31.001Z,50.54
2024-05-09T07:10:34.918Z,50.13
2024-05-09T07:11:32.071Z,50.21
2024-05-09T07:12:31.172Z,50.30
2024-05-09T07:13:31.028Z,50.89
2024-05-09T07:14:31.942Z,52.01
2024-05-09T07:15:31.058Z,53.25
2024-05-09T07:16:31.094Z,55.72
2024-05-09T07:17:31.296Z,53.24
2024-05-09T07:18:31.253Z,52.52
2024-05-09T07:19:31.172Z,51.67
2024-05-09T07:20:34.536Z,52.06
2024-05-09T07:21:31.104Z,52.10
2024-05-09T07:22:31.116Z,52.18
2024-05-09T07:23:31.169Z,52.56
2024-05-09T07:24:31.135Z,52.92
2024-05-09T07:25:31.691Z,53.50
2024-05-09T07:26:31.183Z,54.91
2024-05-09T07:27:31.169Z,53.05
2024-05-09T07:28:31.157Z,52.16
2024-05-09T07:29:31.422Z,50.00
2024-05-09T07:30:34.290Z,51.27
2024-05-09T07:31:31.214Z,51.28
2024-05-09T07:32:31.340Z,51.22
2024-05-09T07:33:31.339Z,50.40
2024-05-09T07:34:31.282Z,50.10
2024-05-09T07:35:31.650Z,52.90
2024-05-09T07:36:31.236Z,52.64
2024-05-09T07:37:31.232Z,52.48
2024-05-09T07:38:31.282Z,51.42
2024-05-09T07:39:31.250Z,51.85
2024-05-09T07:40:35.998Z,51.77
2024-05-09T07:41:31.327Z,51.90
2024-05-09T07:42:31.281Z,52.28
2024-05-09T07:43:31.327Z,52.91
2024-05-09T07:44:31.525Z,53.36
2024-05-09T07:45:48.025Z,54.77
2024-05-09T07:48:57.364Z,51.92
2024-05-09T07:50:33.279Z,51.96
2024-05-09T07:53:08.173Z,51.96
2024-05-09T07:53:33.077Z,52.11
2024-05-09T07:53:40.834Z,52.18
2024-05-09T07:54:31.542Z,52.23
2024-05-09T07:55:31.757Z,53.61
2024-05-09T07:56:32.029Z,55.87
2024-05-09T07:57:31.506Z,57.50
2024-05-09T07:58:31.480Z,58.69
2024-05-09T07:59:35.079Z,52.12
2024-05-09T08:00:32.508Z,52.17
2024-05-09T08:01:31.619Z,53.08
2024-05-09T08:02:31.621Z,55.03
2024-05-09T08:03:31.614Z,56.16
2024-05-09T08:04:31.575Z,58.62
2024-05-09T08:05:31.732Z,57.09
2024-05-09T08:06:31.538Z,55.72
2024-05-09T08:07:31.506Z,53.23
2024-05-09T08:08:31.498Z,54.37
2024-05-09T08:09:31.592Z,54.13
2024-05-09T08:10:31.663Z,54.20
2024-05-09T08:11:31.655Z,52.02
2024-05-09T08:12:31.637Z,50.95
2024-05-09T08:13:31.643Z,52.47
2024-05-09T08:14:31.690Z,53.36
2024-05-09T08:15:31.754Z,51.30
2024-05-09T08:16:31.785Z,51.94
2024-05-09T08:17:31.873Z,51.68
2024-05-09T08:18:32.250Z,52.41
2024-05-09T08:19:31.892Z,53.90
2024-05-09T08:20:35.194Z,51.99
2024-05-09T08:21:31.991Z,55.05
2024-05-09T08:22:31.918Z,52.63
2024-05-09T08:23:31.935Z,50.61
2024-05-09T08:24:31.944Z,53.27
2024-05-09T08:25:31.958Z,53.35
2024-05-09T08:26:31.955Z,53.85
2024-05-09T08:27:31.983Z,53.56
2024-05-09T08:28:32.006Z,54.95
2024-05-09T08:29:31.983Z,55.09
2024-05-09T08:30:36.575Z,55.33
2024-05-09T08:31:33.029Z,55.40
2024-05-09T08:32:32.085Z,55.39
2024-05-09T08:33:32.253Z,54.22
2024-05-09T08:34:32.061Z,54.39
2024-05-09T08:35:32.047Z,54.59
2024-05-09T08:36:32.054Z,55.33
2024-05-09T08:37:36.836Z,55.31
2024-05-09T08:38:33.053Z,55.41
2024-05-09T08:39:32.061Z,55.39
2024-05-09T08:40:35.446Z,51.85
2024-05-09T08:41:33.080Z,55.32
2024-05-09T08:42:32.139Z,54.83
2024-05-09T08:43:32.082Z,55.71
2024-05-09T08:44:32.055Z,54.20
2024-05-09T08:45:32.166Z,55.14
2024-05-09T08:46:32.117Z,54.11
2024-05-09T08:47:32.284Z,53.30
2024-05-09T08:48:32.298Z,53.48
2024-05-09T08:49:32.169Z,51.86
2024-05-09T08:50:38.331Z,50.91
2024-05-09T08:51:33.157Z,51.02
2024-05-09T08:52:32.095Z,51.54
2024-05-09T08:53:32.113Z,51.24
2024-05-09T08:54:32.129Z,52.45
2024-05-09T08:55:32.094Z,53.47
2024-05-09T08:56:32.093Z,51.85
2024-05-09T08:57:32.144Z,51.73
2024-05-09T08:58:32.130Z,51.46
2024-05-09T08:59:32.096Z,50.61
2024-05-09T09:00:36.911Z,51.87
2024-05-09T09:01:33.223Z,51.58
2024-05-09T09:02:32.196Z,52.03
2024-05-09T09:03:32.480Z,51.96
2024-05-09T09:04:32.185Z,52.02
2024-05-09T09:05:32.449Z,50.86
2024-05-09T09:06:32.157Z,52.04
2024-05-09T09:07:32.179Z,50.00
2024-05-09T09:08:32.110Z,51.79
2024-05-09T09:09:32.171Z,53.37
2024-05-09T09:10:33.215Z,51.67
2024-05-09T09:11:32.166Z,50.00
2024-05-09T09:12:32.165Z,52.47
2024-05-09T09:13:32.133Z,52.57
2024-05-09T09:14:32.113Z,53.22
2024-05-09T09:15:32.373Z,52.38
2024-05-09T09:16:32.164Z,52.71
2024-05-09T09:17:32.205Z,52.33
2024-05-09T09:18:32.340Z,53.88
2024-05-09T09:19:32.172Z,50.45
2024-05-09T09:20:36.474Z,52.52
2024-05-09T09:21:33.177Z,52.54
2024-05-09T09:22:32.139Z,52.63
2024-05-09T09:23:32.151Z,52.78
2024-05-09T09:24:32.178Z,52.99
2024-05-09T09:25:32.393Z,53.74
2024-05-09T09:26:32.134Z,53.04
2024-05-09T09:27:32.189Z,55.76
2024-05-09T09:28:32.164Z,54.55
2024-05-09T09:29:32.148Z,53.77
2024-05-09T09:30:36.985Z,54.10
2024-05-09T09:31:33.467Z,54.15
2024-05-09T09:32:32.272Z,53.27
2024-05-09T09:33:32.786Z,51.17
2024-05-09T09:34:32.494Z,54.63
2024-05-09T09:35:32.249Z,53.66
2024-05-09T09:36:32.200Z,54.16
2024-05-09T09:37:32.176Z,53.54
2024-05-09T09:38:32.170Z,56.61
2024-05-09T09:39:32.182Z,53.86
2024-05-09T09:40:34.050Z,55.70
2024-05-09T09:41:32.185Z,55.77
2024-05-09T09:42:32.192Z,55.56
2024-05-09T09:43:32.175Z,56.75
2024-05-09T09:44:32.922Z,56.27
2024-05-09T09:45:32.214Z,57.15
2024-05-09T09:46:32.236Z,56.07
2024-05-09T09:47:32.266Z,57.71
2024-05-09T09:48:32.436Z,59.19
2024-05-09T09:49:32.215Z,58.52
2024-05-09T09:50:34.784Z,56.94
2024-05-09T09:51:32.173Z,57.02
2024-05-09T09:52:32.156Z,57.20
2024-05-09T09:53:32.127Z,57.14
2024-05-09T09:54:32.143Z,57.66
2024-05-09T09:55:32.107Z,58.44
2024-05-09T09:56:32.111Z,59.15
2024-05-09T09:57:32.126Z,61.50
2024-05-09T09:58:32.197Z,59.96
2024-05-09T09:59:32.098Z,59.96
2024-05-09T10:00:33.446Z,61.28
2024-05-09T10:01:32.157Z,57.94
2024-05-09T10:02:32.309Z,58.49
2024-05-09T10:03:32.285Z,58.97
2024-05-09T10:04:32.206Z,59.83
2024-05-09T10:05:32.322Z,60.27
2024-05-09T10:06:32.134Z,57.56
2024-05-09T10:07:32.121Z,59.14
2024-05-09T10:08:32.101Z,59.30
2024-05-09T10:09:32.150Z,58.43
2024-05-09T10:10:33.243Z,58.75
2024-05-09T10:11:34.903Z,59.39
2024-05-09T10:12:33.222Z,59.49
2024-05-09T10:13:32.174Z,58.99
2024-05-09T10:14:32.147Z,59.67
2024-05-09T10:15:32.182Z,59.22
2024-05-09T10:16:32.192Z,59.53
2024-05-09T10:17:32.172Z,59.05
2024-05-09T10:18:34.285Z,59.78
2024-05-09T10:19:32.202Z,59.31
2024-05-09T10:20:32.959Z,58.38
2024-05-09T10:21:32.146Z,58.28
2024-05-09T10:22:32.143Z,59.20
2024-05-09T10:23:32.347Z,58.25
2024-05-09T10:24:32.207Z,58.71
2024-05-09T10:25:32.246Z,57.24
2024-05-09T10:26:32.205Z,59.21
2024-05-09T10:27:32.256Z,58.81
2024-05-09T10:28:32.249Z,57.61
2024-05-09T10:29:32.249Z,57.27
2024-05-09T10:30:35.982Z,58.39
2024-05-09T10:31:32.349Z,58.47
2024-05-09T10:32:32.325Z,58.66
2024-05-09T10:33:32.368Z,58.66
2024-05-09T10:34:32.356Z,59.71
2024-05-09T10:35:32.261Z,59.04
2024-05-09T10:36:32.325Z,57.34
2024-05-09T10:37:32.302Z,58.32
2024-05-09T10:38:32.275Z,58.57
2024-05-09T10:39:32.340Z,59.33
2024-05-09T10:40:32.426Z,57.89
2024-05-09T10:41:32.292Z,55.27
2024-05-09T10:42:32.305Z,54.68
2024-05-09T10:43:32.278Z,57.16
2024-05-09T10:44:32.294Z,55.27
2024-05-09T10:45:32.329Z,54.65
2024-05-09T10:46:32.289Z,54.64
2024-05-09T10:47:32.351Z,56.78
2024-05-09T10:48:32.399Z,57.15
2024-05-09T10:49:32.344Z,59.06
2024-05-09T10:50:34.415Z,59.60
2024-05-09T10:51:32.390Z,60.00
2024-05-09T10:52:32.346Z,58.80
2024-05-09T10:53:32.410Z,57.00
2024-05-09T10:54:32.490Z,59.64
2024-05-09T10:55:32.472Z,61.60
2024-05-09T10:56:32.417Z,61.62
2024-05-09T10:57:32.465Z,59.45
2024-05-09T10:58:32.493Z,59.97
2024-05-09T10:59:32.497Z,58.58
2024-05-09T11:00:35.898Z,61.14
2024-05-09T11:01:32.660Z,61.17
2024-05-09T11:02:32.823Z,60.83
2024-05-09T11:03:32.655Z,59.87
2024-05-09T11:04:32.549Z,60.99
2024-05-09T11:05:32.621Z,60.85
2024-05-09T11:06:32.569Z,61.44
2024-05-09T11:07:32.568Z,61.54
2024-05-09T11:08:32.820Z,61.93
2024-05-09T11:09:32.550Z,62.26
2024-05-09T11:10:34.364Z,62.89
2024-05-09T11:11:32.527Z,62.03
2024-05-09T11:12:32.530Z,63.65
2024-05-09T11:13:32.520Z,61.76
2024-05-09T11:14:32.536Z,62.79
2024-05-09T11:15:32.550Z,61.47
2024-05-09T11:16:32.681Z,62.66
2024-05-09T11:17:32.802Z,62.09
2024-05-09T11:18:36.520Z,61.57
2024-05-09T11:19:33.830Z,61.61
2024-05-09T11:20:35.037Z,61.59
2024-05-09T11:21:32.799Z,61.20
2024-05-09T11:22:32.733Z,58.59
2024-05-09T11:23:32.786Z,60.87
2024-05-09T11:24:32.830Z,62.08
2024-05-09T11:25:32.717Z,61.04
2024-05-09T11:26:32.734Z,58.10
2024-05-09T11:27:32.770Z,60.08
2024-05-09T11:28:32.765Z,61.31
2024-05-09T11:29:32.749Z,59.81
2024-05-09T11:30:32.842Z,59.33
2024-05-09T11:31:33.050Z,60.46
2024-05-09T11:32:33.026Z,60.55
2024-05-09T11:33:32.792Z,60.01
2024-05-09T11:34:32.911Z,59.28
2024-05-09T11:35:32.746Z,59.19
2024-05-09T11:36:32.905Z,58.67
2024-05-09T11:37:35.410Z,58.63
2024-05-09T11:38:32.751Z,58.68
2024-05-09T11:39:32.879Z,58.83
2024-05-09T11:40:34.553Z,54.71
2024-05-09T11:41:32.772Z,58.48
2024-05-09T11:42:32.870Z,58.28
2024-05-09T11:43:32.863Z,58.77
2024-05-09T11:44:32.732Z,57.72
2024-05-09T11:45:32.841Z,57.64
2024-05-09T11:46:32.819Z,56.77
2024-05-09T11:47:32.957Z,57.38
2024-05-09T11:48:33.115Z,54.93
2024-05-09T11:49:33.258Z,60.04
2024-05-09T11:50:35.861Z,55.53
2024-05-09T11:51:33.140Z,55.67
2024-05-09T11:52:33.100Z,55.09
2024-05-09T11:53:33.088Z,55.83
2024-05-09T11:54:33.095Z,55.57
2024-05-09T11:55:33.137Z,57.40
2024-05-09T11:56:33.077Z,55.16
2024-05-09T11:57:33.144Z,55.26
2024-05-09T11:58:33.071Z,53.50
2024-05-09T11:59:33.087Z,53.79
2024-05-09T12:00:37.043Z,54.62
2024-05-09T12:01:33.210Z,54.68
2024-05-09T12:02:33.174Z,54.16
2024-05-09T12:03:33.231Z,55.70
2024-05-09T12:04:33.232Z,55.83
2024-05-09T12:05:33.984Z,54.48
2024-05-09T12:06:33.149Z,55.03
2024-05-09T12:07:33.078Z,55.53
2024-05-09T12:08:33.120Z,56.88
2024-05-09T12:09:33.102Z,53.79
2024-05-09T12:10:35.542Z,57.20
2024-05-09T12:11:33.142Z,56.75
2024-05-09T12:12:35.472Z,56.67
2024-05-09T12:13:33.167Z,56.77
2024-05-09T12:14:33.063Z,56.90
2024-05-09T12:15:33.247Z,56.88
2024-05-09T12:16:33.357Z,58.01
2024-05-09T12:17:33.149Z,58.77
2024-05-09T12:18:33.147Z,57.79
2024-05-09T12:19:33.146Z,57.31
2024-05-09T12:20:37.314Z,55.83
2024-05-09T12:21:34.083Z,55.99
2024-05-09T12:22:33.039Z,56.27
2024-05-09T12:23:33.041Z,56.96
2024-05-09T12:24:33.092Z,57.66
2024-05-09T12:25:33.038Z,59.56
2024-05-09T12:26:33.052Z,59.75
2024-05-09T12:27:33.028Z,57.57
2024-05-09T12:28:33.096Z,59.84
2024-05-09T12:29:34.988Z,59.74
2024-05-09T12:30:37.988Z,59.81
2024-05-09T12:31:34.015Z,59.80
2024-05-09T12:32:33.079Z,59.93
2024-05-09T12:33:33.088Z,59.69
2024-05-09T12:34:33.005Z,60.24
2024-05-09T12:35:33.128Z,60.50
2024-05-09T12:36:33.023Z,57.23
2024-05-09T12:37:32.959Z,59.30
2024-05-09T12:38:32.942Z,58.11
2024-05-09T12:39:33.007Z,56.02
2024-05-09T12:40:36.591Z,52.44
2024-05-09T12:41:32.913Z,52.61
2024-05-09T12:42:33.893Z,52.80
2024-05-09T12:43:32.981Z,53.38
2024-05-09T12:44:32.916Z,54.95
2024-05-09T12:45:33.012Z,55.56
2024-05-09T12:46:33.081Z,56.47
2024-05-09T12:47:33.029Z,57.45
2024-05-09T12:48:33.067Z,56.21